9TN6 weather

Performance Helicopters Heliport
Arlington, Tennessee, United States

Public forecast

Using degrees Fahrenheit for public forecast. Weather courtesy of forecast.io.

Closest aviation weather report (METAR) to Performance Helicopters Heliport

Closest report is Millington-Memphis Airport, 10.4 nm (19.3 km) WNW. Retrieved 2019/10/21 01:35 UTC (19 minutes ago):

KNQA 210135Z AUTO 14007KT 10SM BKN029 21/16 A2981 RMK A01

Closest aviation forecast (TAF) to Performance Helicopters Heliport

Closest forecast is Memphis International Airport, 21.0 nm (38.8 km) SW. Retrieved 2019-10-21 00:30 UTC (1 hour ago):

TAF KMEM 202328Z 2100/2206 11009KT P6SM BKN050 FM210600 17008KT P6SM VCSH OVC050 WS020/22045KT FM211200 19011G20KT 4SM TSRA BKN025CB OVC050 TEMPO 2113/2116 1SM TSRA FM211900 24014G22KT P6SM VCSH SCT007 OVC015 FM212200 29012G20KT P6SM OVC040 FM220000 26006KT P6SM FEW050